createdAt,value
2018-12-31T00:00:05.445Z,1023.46
2018-12-31T00:01:05.448Z,1023.50
2018-12-31T00:02:05.404Z,1023.50
2018-12-31T00:03:05.391Z,1023.52
2018-12-31T00:04:05.384Z,1023.44
2018-12-31T00:05:05.380Z,1023.40
2018-12-31T00:06:05.363Z,1023.32
2018-12-31T00:07:05.382Z,1023.23
2018-12-31T00:08:05.339Z,1023.20
2018-12-31T00:09:05.322Z,1023.27
2018-12-31T00:10:05.315Z,1023.23
2018-12-31T00:11:05.303Z,1023.27
2018-12-31T00:12:05.297Z,1023.27
2018-12-31T00:13:05.307Z,1023.31
2018-12-31T00:14:05.270Z,1023.31
2018-12-31T00:15:05.289Z,1023.32
2018-12-31T00:16:05.258Z,1023.33
2018-12-31T00:17:05.277Z,1023.42
2018-12-31T00:18:05.236Z,1023.43
2018-12-31T00:19:05.222Z,1023.48
2018-12-31T00:20:05.205Z,1023.51
2018-12-31T00:21:05.194Z,1023.52
2018-12-31T00:22:05.184Z,1023.57
2018-12-31T00:23:05.208Z,1023.56
2018-12-31T00:24:05.169Z,1023.54
2018-12-31T00:25:05.156Z,1023.49
2018-12-31T00:26:05.146Z,1023.48
2018-12-31T00:27:05.139Z,1023.46
2018-12-31T00:28:05.120Z,1023.53
2018-12-31T00:29:05.133Z,1023.59
2018-12-31T00:30:05.104Z,1023.59
2018-12-31T00:31:05.093Z,1023.60
2018-12-31T00:32:05.080Z,1023.57
2018-12-31T00:33:05.065Z,1023.64
2018-12-31T00:34:05.087Z,1023.58
2018-12-31T00:35:05.047Z,1023.60
2018-12-31T00:36:05.046Z,1023.57
2018-12-31T00:37:05.030Z,1023.58
2018-12-31T00:38:05.020Z,1023.58
2018-12-31T00:39:05.005Z,1023.53
2018-12-31T00:40:05.024Z,1023.57
2018-12-31T00:41:04.980Z,1023.58
2018-12-31T00:42:04.965Z,1023.57
2018-12-31T00:43:04.971Z,1023.56
2018-12-31T00:44:04.952Z,1023.61
2018-12-31T00:45:04.941Z,1023.61
2018-12-31T00:46:04.946Z,1023.59
2018-12-31T00:47:04.914Z,1023.59
2018-12-31T00:48:04.910Z,1023.54
2018-12-31T00:49:04.898Z,1023.48
2018-12-31T00:50:04.891Z,1023.53
2018-12-31T00:51:04.903Z,1023.52
2018-12-31T00:52:04.860Z,1023.52
2018-12-31T00:53:04.871Z,1023.51
2018-12-31T00:54:04.840Z,1023.47
2018-12-31T00:55:04.829Z,1023.53
2018-12-31T00:56:04.822Z,1023.53
2018-12-31T00:57:04.811Z,1023.58
2018-12-31T00:58:04.832Z,1023.61
2018-12-31T00:59:04.787Z,1023.61
2018-12-31T01:00:04.807Z,1023.56
2018-12-31T01:01:04.775Z,1023.62
2018-12-31T01:02:04.761Z,1023.63
2018-12-31T01:03:04.749Z,1023.64
2018-12-31T01:04:04.733Z,1023.68
2018-12-31T01:05:04.720Z,1023.63
2018-12-31T01:06:04.728Z,1023.58
2018-12-31T01:07:04.698Z,1023.56
2018-12-31T01:08:04.695Z,1023.58
2018-12-31T01:09:04.685Z,1023.59
2018-12-31T01:10:04.675Z,1023.61
2018-12-31T01:11:04.661Z,1023.63
2018-12-31T01:12:04.699Z,1023.62
2018-12-31T01:13:04.632Z,1023.70
2018-12-31T01:14:04.623Z,1023.64
2018-12-31T01:15:04.627Z,1023.71
2018-12-31T01:16:04.619Z,1023.66
2018-12-31T01:17:04.596Z,1023.63
2018-12-31T01:18:04.600Z,1023.65
2018-12-31T01:19:04.576Z,1023.66
2018-12-31T01:20:04.563Z,1023.69
2018-12-31T01:21:04.551Z,1023.68
2018-12-31T01:22:04.543Z,1023.74
2018-12-31T01:23:04.556Z,1023.71
2018-12-31T01:24:04.516Z,1023.72
2018-12-31T01:25:04.503Z,1023.74
2018-12-31T01:26:04.494Z,1023.80
2018-12-31T01:27:04.514Z,1023.81
2018-12-31T01:28:04.479Z,1023.81
2018-12-31T01:29:04.466Z,1023.82
2018-12-31T01:30:04.454Z,1023.84
2018-12-31T01:31:04.463Z,1023.84
2018-12-31T01:32:04.430Z,1023.86
2018-12-31T01:33:04.442Z,1023.84
2018-12-31T01:34:04.414Z,1023.82
2018-12-31T01:35:04.406Z,1023.84
2018-12-31T01:36:04.424Z,1023.79
2018-12-31T01:37:04.374Z,1023.80
2018-12-31T01:38:04.362Z,1023.78
2018-12-31T01:39:04.353Z,1023.85
2018-12-31T01:40:04.347Z,1023.92
2018-12-31T01:41:04.342Z,1023.95
2018-12-31T01:42:04.348Z,1023.94
2018-12-31T01:43:04.316Z,1023.93
2018-12-31T01:44:04.329Z,1023.98
2018-12-31T01:45:04.287Z,1024.01
2018-12-31T01:46:04.280Z,1024.04
2018-12-31T01:47:04.266Z,1024.04
2018-12-31T01:48:04.261Z,1024.05
2018-12-31T01:49:04.262Z,1024.08
2018-12-31T01:50:04.257Z,1024.04
2018-12-31T01:51:11.109Z,1024.09
2018-12-31T01:52:05.216Z,1024.11
2018-12-31T01:53:04.233Z,1024.10
2018-12-31T01:54:04.196Z,1024.12
2018-12-31T01:55:04.184Z,1024.10
2018-12-31T01:56:04.171Z,1024.12
2018-12-31T01:57:04.183Z,1024.12
2018-12-31T01:58:04.149Z,1024.11
2018-12-31T01:59:04.136Z,1024.09
2018-12-31T02:00:04.132Z,1024.07
2018-12-31T02:01:04.121Z,1024.11
2018-12-31T02:02:04.143Z,1024.08
2018-12-31T02:03:04.100Z,1024.10
2018-12-31T02:04:04.092Z,1024.13
2018-12-31T02:05:04.072Z,1024.14
2018-12-31T02:06:04.068Z,1024.19
2018-12-31T02:07:04.130Z,1024.12
2018-12-31T02:08:04.070Z,1024.12
2018-12-31T02:09:04.028Z,1024.06
2018-12-31T02:10:04.028Z,1024.09
2018-12-31T02:11:04.008Z,1024.12
2018-12-31T02:12:04.002Z,1024.12
2018-12-31T02:13:03.991Z,1024.12
2018-12-31T02:14:04.005Z,1024.11
2018-12-31T02:15:03.971Z,1024.16
2018-12-31T02:16:03.959Z,1024.17
2018-12-31T02:17:03.941Z,1024.20
2018-12-31T02:18:03.932Z,1024.21
2018-12-31T02:19:03.952Z,1024.18
2018-12-31T02:20:03.915Z,1024.21
2018-12-31T02:21:03.953Z,1024.20
2018-12-31T02:22:03.893Z,1024.22
2018-12-31T02:23:03.878Z,1024.18
2018-12-31T02:24:03.874Z,1024.24
2018-12-31T02:25:03.886Z,1024.31
2018-12-31T02:26:03.884Z,1024.30
2018-12-31T02:27:03.845Z,1024.30
2018-12-31T02:28:03.828Z,1024.29
2018-12-31T02:29:03.814Z,1024.27
2018-12-31T02:30:03.810Z,1024.24
2018-12-31T02:31:03.802Z,1024.20
2018-12-31T02:32:03.809Z,1024.24
2018-12-31T02:33:03.775Z,1024.23
2018-12-31T02:34:03.772Z,1024.20
2018-12-31T02:35:03.757Z,1024.22
2018-12-31T02:36:03.745Z,1024.21
2018-12-31T02:37:03.764Z,1024.18
2018-12-31T02:38:03.717Z,1024.21
2018-12-31T02:39:03.718Z,1024.22
2018-12-31T02:40:03.701Z,1024.21
2018-12-31T02:41:03.690Z,1024.21
2018-12-31T02:42:03.680Z,1024.17
2018-12-31T02:43:03.691Z,1024.21
2018-12-31T02:44:03.651Z,1024.16
2018-12-31T02:45:03.641Z,1024.21
2018-12-31T02:46:03.630Z,1024.22
2018-12-31T02:47:03.632Z,1024.13
2018-12-31T02:48:03.637Z,1024.17
2018-12-31T02:49:03.607Z,1024.17
2018-12-31T02:50:03.591Z,1024.18
2018-12-31T02:51:03.611Z,1024.16
2018-12-31T02:52:03.567Z,1024.21
2018-12-31T02:53:03.587Z,1024.19
2018-12-31T02:54:03.552Z,1024.20
2018-12-31T02:55:03.543Z,1024.22
2018-12-31T02:56:03.523Z,1024.20
2018-12-31T02:57:03.510Z,1024.17
2018-12-31T02:58:03.500Z,1024.17
2018-12-31T02:59:03.518Z,1024.14
2018-12-31T03:00:14.239Z,1024.07
2018-12-31T03:01:03.554Z,1024.09
2018-12-31T03:02:03.456Z,1024.06
2018-12-31T03:03:03.449Z,1024.03
2018-12-31T03:04:03.456Z,1024.00
2018-12-31T03:05:03.429Z,1023.96
2018-12-31T03:06:03.459Z,1023.97
2018-12-31T03:07:03.410Z,1023.99
2018-12-31T03:08:03.392Z,1024.00
2018-12-31T03:09:03.387Z,1024.02
2018-12-31T03:10:03.378Z,1024.05
2018-12-31T03:11:03.367Z,1024.07
2018-12-31T03:12:03.375Z,1024.11
2018-12-31T03:13:03.342Z,1024.19
2018-12-31T03:14:03.328Z,1024.17
2018-12-31T03:15:03.340Z,1024.15
2018-12-31T03:16:03.315Z,1024.16
2018-12-31T03:17:03.301Z,1024.15
2018-12-31T03:18:03.290Z,1024.10
2018-12-31T03:19:03.319Z,1024.13
2018-12-31T03:20:10.240Z,1024.15
2018-12-31T03:21:03.260Z,1024.13
2018-12-31T03:22:03.246Z,1024.17
2018-12-31T03:23:03.231Z,1024.17
2018-12-31T03:24:03.226Z,1024.19
2018-12-31T03:25:03.243Z,1024.19
2018-12-31T03:26:03.196Z,1024.25
2018-12-31T03:27:03.187Z,1024.20
2018-12-31T03:28:03.245Z,1024.20
2018-12-31T03:29:03.165Z,1024.18
2018-12-31T03:30:03.159Z,1024.18
2018-12-31T03:31:03.183Z,1024.19
2018-12-31T03:32:03.138Z,1024.20
2018-12-31T03:33:03.146Z,1024.15
2018-12-31T03:34:03.113Z,1024.14
2018-12-31T03:35:03.123Z,1024.16
2018-12-31T03:36:03.095Z,1024.19
2018-12-31T03:37:03.076Z,1024.19
2018-12-31T03:38:03.101Z,1024.19
2018-12-31T03:39:03.064Z,1024.23
2018-12-31T03:40:03.055Z,1024.20
2018-12-31T03:41:03.096Z,1024.21
2018-12-31T03:42:03.032Z,1024.25
2018-12-31T03:43:03.018Z,1024.26
2018-12-31T03:44:03.007Z,1024.32
2018-12-31T03:45:02.996Z,1024.28
2018-12-31T03:46:02.985Z,1024.25
2018-12-31T03:47:03.006Z,1024.20
2018-12-31T03:48:02.958Z,1024.16
2018-12-31T03:49:02.948Z,1024.23
2018-12-31T03:50:02.950Z,1024.22
2018-12-31T03:51:02.940Z,1024.23
2018-12-31T03:52:02.935Z,1024.26
2018-12-31T03:53:02.934Z,1024.30
2018-12-31T03:54:02.894Z,1024.30
2018-12-31T03:55:02.883Z,1024.25
2018-12-31T03:56:02.880Z,1024.24
2018-12-31T03:57:02.867Z,1024.20
2018-12-31T03:58:02.870Z,1024.24
2018-12-31T03:59:02.840Z,1024.20
2018-12-31T04:00:02.833Z,1024.17
2018-12-31T04:01:02.817Z,1024.19
2018-12-31T04:02:02.848Z,1024.17
2018-12-31T04:03:02.805Z,1024.10
2018-12-31T04:04:02.788Z,1024.12
2018-12-31T04:05:02.782Z,1024.09
2018-12-31T04:06:02.767Z,1024.14
2018-12-31T04:07:02.756Z,1024.14
2018-12-31T04:08:02.763Z,1024.15
2018-12-31T04:09:02.733Z,1024.16
2018-12-31T04:10:02.735Z,1024.19
2018-12-31T04:11:02.759Z,1024.24
2018-12-31T04:12:02.701Z,1024.25
2018-12-31T04:13:02.689Z,1024.27
2018-12-31T04:14:02.681Z,1024.24
2018-12-31T04:15:02.673Z,1024.26
2018-12-31T04:16:02.667Z,1024.23
2018-12-31T04:17:02.713Z,1024.23
2018-12-31T04:18:02.647Z,1024.28
2018-12-31T04:19:02.626Z,1024.34
2018-12-31T04:20:02.614Z,1024.29
2018-12-31T04:21:02.601Z,1024.35
2018-12-31T04:22:02.611Z,1024.30
2018-12-31T04:23:02.614Z,1024.33
2018-12-31T04:24:02.574Z,1024.32
2018-12-31T04:25:02.564Z,1024.26
2018-12-31T04:26:02.546Z,1024.25
2018-12-31T04:27:02.532Z,1024.22
2018-12-31T04:28:02.540Z,1024.20
2018-12-31T04:29:02.545Z,1024.19
2018-12-31T04:30:02.504Z,1024.18
2018-12-31T04:31:02.491Z,1024.19
2018-12-31T04:32:02.480Z,1024.22
2018-12-31T04:33:02.474Z,1024.24
2018-12-31T04:34:02.484Z,1024.28
2018-12-31T04:35:02.451Z,1024.29
2018-12-31T04:36:02.446Z,1024.30
2018-12-31T04:37:02.468Z,1024.31
2018-12-31T04:38:02.417Z,1024.29
2018-12-31T04:39:02.424Z,1024.39
2018-12-31T04:40:02.394Z,1024.37
2018-12-31T04:41:02.382Z,1024.36
2018-12-31T04:42:02.407Z,1024.36
2018-12-31T04:43:02.367Z,1024.36
2018-12-31T04:44:02.345Z,1024.34
2018-12-31T04:45:02.365Z,1024.34
2018-12-31T04:46:02.387Z,1024.35
2018-12-31T04:47:02.320Z,1024.35
2018-12-31T04:48:02.329Z,1024.34
2018-12-31T04:49:02.319Z,1024.33
2018-12-31T04:50:02.317Z,1024.28
2018-12-31T04:51:02.282Z,1024.26
2018-12-31T04:52:02.265Z,1024.25
2018-12-31T04:53:02.247Z,1024.23
2018-12-31T04:54:02.249Z,1024.27
2018-12-31T04:55:02.332Z,1024.19
2018-12-31T04:56:02.250Z,1024.23
2018-12-31T04:57:02.221Z,1024.19
2018-12-31T04:58:02.197Z,1024.18
2018-12-31T04:59:02.182Z,1024.21
2018-12-31T05:00:02.181Z,1024.22
2018-12-31T05:01:02.191Z,1024.23
2018-12-31T05:02:02.151Z,1024.22
2018-12-31T05:03:02.146Z,1024.16
2018-12-31T05:04:02.132Z,1024.14
2018-12-31T05:05:02.123Z,1024.17
2018-12-31T05:06:02.150Z,1024.17
2018-12-31T05:07:02.102Z,1024.20
2018-12-31T05:08:02.092Z,1024.24
2018-12-31T05:09:02.085Z,1024.34
2018-12-31T05:10:02.065Z,1024.33
2018-12-31T05:11:02.055Z,1024.36
2018-12-31T05:12:02.073Z,1024.34
2018-12-31T05:13:02.033Z,1024.32
2018-12-31T05:14:02.027Z,1024.34
2018-12-31T05:15:02.041Z,1024.39
2018-12-31T05:16:01.999Z,1024.41
2018-12-31T05:17:02.010Z,1024.46
2018-12-31T05:18:01.982Z,1024.45
2018-12-31T05:19:01.981Z,1024.44
2018-12-31T05:20:01.988Z,1024.47
2018-12-31T05:21:01.957Z,1024.43
2018-12-31T05:22:01.933Z,1024.50
2018-12-31T05:23:01.944Z,1024.54
2018-12-31T05:24:01.933Z,1024.57
2018-12-31T05:25:01.935Z,1024.67
2018-12-31T05:26:01.893Z,1024.66
2018-12-31T05:27:01.887Z,1024.67
2018-12-31T05:28:01.874Z,1024.64
2018-12-31T05:29:01.900Z,1024.64
2018-12-31T05:30:01.845Z,1024.61
2018-12-31T05:31:01.886Z,1024.61
2018-12-31T05:32:01.831Z,1024.63
2018-12-31T05:33:01.828Z,1024.67
2018-12-31T05:34:01.822Z,1024.67
2018-12-31T05:35:02.301Z,1024.57
2018-12-31T05:36:01.816Z,1024.55
2018-12-31T05:37:01.767Z,1024.48
2018-12-31T05:38:01.767Z,1024.56
2018-12-31T05:39:01.766Z,1024.57
2018-12-31T05:40:01.743Z,1024.59
2018-12-31T05:41:01.785Z,1024.60
2018-12-31T05:42:01.716Z,1024.57
2018-12-31T05:43:01.728Z,1024.53
2018-12-31T05:44:01.692Z,1024.59
2018-12-31T05:45:01.729Z,1024.63
2018-12-31T05:46:01.701Z,1024.68
2018-12-31T05:47:01.736Z,1024.66
2018-12-31T05:48:01.649Z,1024.66
2018-12-31T05:49:01.650Z,1024.69
2018-12-31T05:50:01.634Z,1024.70
2018-12-31T05:51:01.662Z,1024.70
2018-12-31T05:52:01.611Z,1024.71
2018-12-31T05:53:01.657Z,1024.73
2018-12-31T05:54:01.583Z,1024.68
2018-12-31T05:55:01.604Z,1024.66
2018-12-31T05:56:01.561Z,1024.66
2018-12-31T05:57:01.572Z,1024.64
2018-12-31T05:58:01.545Z,1024.64
2018-12-31T05:59:01.588Z,1024.63
2018-12-31T06:00:01.529Z,1024.62
2018-12-31T06:01:01.519Z,1024.63
2018-12-31T06:02:01.528Z,1024.62
2018-12-31T06:03:01.495Z,1024.64
2018-12-31T06:04:01.484Z,1024.58
2018-12-31T06:05:01.510Z,1024.61
2018-12-31T06:06:01.453Z,1024.61
2018-12-31T06:07:01.445Z,1024.63
2018-12-31T06:08:01.457Z,1024.63
2018-12-31T06:09:01.419Z,1024.65
2018-12-31T06:10:01.417Z,1024.69
2018-12-31T06:11:02.366Z,1024.69
2018-12-31T06:12:01.497Z,1024.72
2018-12-31T06:13:01.385Z,1024.75
2018-12-31T06:14:01.373Z,1024.72
2018-12-31T06:15:01.361Z,1024.73
2018-12-31T06:16:01.347Z,1024.71
2018-12-31T06:17:01.365Z,1024.72
2018-12-31T06:18:01.332Z,1024.71
2018-12-31T06:19:01.319Z,1024.69
2018-12-31T06:20:01.409Z,1024.75
2018-12-31T06:21:01.290Z,1024.73
2018-12-31T06:22:01.287Z,1024.71
2018-12-31T06:23:01.314Z,1024.77
2018-12-31T06:24:01.270Z,1024.78
2018-12-31T06:25:01.352Z,1024.77
2018-12-31T06:26:01.245Z,1024.76
2018-12-31T06:27:01.229Z,1024.77
2018-12-31T06:28:01.217Z,1024.78
2018-12-31T06:29:01.230Z,1024.81
2018-12-31T06:30:02.275Z,1024.82
2018-12-31T06:31:01.191Z,1024.80
2018-12-31T06:32:01.182Z,1024.85
2018-12-31T06:33:01.196Z,1024.86
2018-12-31T06:34:01.151Z,1024.89
2018-12-31T06:35:01.171Z,1024.89
2018-12-31T06:36:01.137Z,1024.92
2018-12-31T06:37:01.125Z,1024.96
2018-12-31T06:38:01.114Z,1024.96
2018-12-31T06:39:01.100Z,1024.96
2018-12-31T06:40:01.088Z,1024.93
2018-12-31T06:41:01.102Z,1024.93
2018-12-31T06:42:01.103Z,1024.88
2018-12-31T06:43:01.060Z,1024.89
2018-12-31T06:44:01.053Z,1024.85
2018-12-31T06:45:01.037Z,1024.85
2018-12-31T06:46:01.023Z,1024.80
2018-12-31T06:47:01.033Z,1024.80
2018-12-31T06:48:01.025Z,1024.78
2018-12-31T06:49:01.000Z,1024.78
2018-12-31T06:50:00.988Z,1024.79
2018-12-31T06:51:00.977Z,1024.78
2018-12-31T06:52:00.959Z,1024.79
2018-12-31T06:53:00.984Z,1024.80
2018-12-31T06:54:00.943Z,1024.78
2018-12-31T06:55:00.940Z,1024.76
2018-12-31T06:56:00.922Z,1024.75
2018-12-31T06:57:00.914Z,1024.76
2018-12-31T06:58:00.902Z,1024.78
2018-12-31T06:59:00.916Z,1024.80
2018-12-31T07:00:00.870Z,1024.79
2018-12-31T07:01:00.860Z,1024.80
2018-12-31T07:02:00.861Z,1024.85
2018-12-31T07:03:00.845Z,1024.84
2018-12-31T07:04:00.835Z,1024.87
2018-12-31T07:05:00.844Z,1024.81
2018-12-31T07:06:00.835Z,1024.83
2018-12-31T07:07:00.795Z,1024.83
2018-12-31T07:08:00.813Z,1024.84
2018-12-31T07:09:00.780Z,1024.87
2018-12-31T07:10:00.764Z,1024.89
2018-12-31T07:11:00.756Z,1024.87
2018-12-31T07:12:00.742Z,1024.93
2018-12-31T07:13:00.756Z,1024.90
2018-12-31T07:14:00.730Z,1024.91
2018-12-31T07:15:00.718Z,1024.89
2018-12-31T07:16:00.711Z,1024.90
2018-12-31T07:17:00.697Z,1024.90
2018-12-31T07:18:00.702Z,1024.89
2018-12-31T07:19:00.666Z,1024.92
2018-12-31T07:20:00.663Z,1024.87
2018-12-31T07:21:00.646Z,1024.91
2018-12-31T07:22:00.645Z,1024.91
2018-12-31T07:23:00.651Z,1024.94
2018-12-31T07:24:00.611Z,1025.01
2018-12-31T07:25:00.635Z,1025.00
2018-12-31T07:26:00.601Z,1024.98
2018-12-31T07:27:00.588Z,1025.03
2018-12-31T07:28:00.579Z,1025.04
2018-12-31T07:29:00.566Z,1025.05
2018-12-31T07:30:00.549Z,1025.05
2018-12-31T07:31:00.558Z,1025.07
2018-12-31T07:32:00.533Z,1025.13
2018-12-31T07:33:00.518Z,1025.11
2018-12-31T07:34:00.510Z,1025.15
2018-12-31T07:35:00.538Z,1025.17
2018-12-31T07:36:00.490Z,1025.22
2018-12-31T07:37:00.482Z,1025.23
2018-12-31T07:38:00.471Z,1025.25
2018-12-31T07:39:00.453Z,1025.27
2018-12-31T07:40:00.455Z,1025.25
2018-12-31T07:41:00.460Z,1025.29
2018-12-31T07:42:00.422Z,1025.32
2018-12-31T07:43:00.429Z,1025.34
2018-12-31T07:44:00.413Z,1025.27
2018-12-31T07:45:00.392Z,1025.29
2018-12-31T07:46:00.382Z,1025.32
2018-12-31T07:47:00.393Z,1025.31
2018-12-31T07:48:00.360Z,1025.37
2018-12-31T07:49:00.349Z,1025.32
2018-12-31T07:50:00.340Z,1025.30
2018-12-31T07:51:00.350Z,1025.37
2018-12-31T07:52:00.311Z,1025.33
2018-12-31T07:53:00.339Z,1025.37
2018-12-31T07:54:00.298Z,1025.36
2018-12-31T07:55:00.286Z,1025.32
2018-12-31T07:56:00.275Z,1025.31
2018-12-31T07:57:00.258Z,1025.28
2018-12-31T07:58:00.252Z,1025.30
2018-12-31T07:59:00.263Z,1025.32
2018-12-31T08:00:00.234Z,1025.31
2018-12-31T08:01:00.222Z,1025.34
2018-12-31T08:02:00.209Z,1025.37
2018-12-31T08:03:00.222Z,1025.37
2018-12-31T08:04:00.205Z,1025.40
2018-12-31T08:05:00.175Z,1025.35
2018-12-31T08:06:00.168Z,1025.39
2018-12-31T08:07:00.156Z,1025.34
2018-12-31T08:08:00.183Z,1025.34
2018-12-31T08:09:00.134Z,1025.40
2018-12-31T08:10:00.159Z,1025.37
2018-12-31T08:11:00.108Z,1025.37
2018-12-31T08:12:00.101Z,1025.36
2018-12-31T08:13:00.099Z,1025.35
2018-12-31T08:14:00.106Z,1025.39
2018-12-31T08:15:00.089Z,1025.37
2018-12-31T08:16:00.053Z,1025.38
2018-12-31T08:17:00.046Z,1025.38
2018-12-31T08:18:00.042Z,1025.42
2018-12-31T08:19:00.028Z,1025.45
2018-12-31T08:20:00.040Z,1025.39
2018-12-31T08:21:00.004Z,1025.39
2018-12-31T08:21:59.989Z,1025.41
2018-12-31T08:22:59.979Z,1025.45
2018-12-31T08:23:59.993Z,1025.38
2018-12-31T08:24:59.958Z,1025.38
2018-12-31T08:25:59.974Z,1025.39
2018-12-31T08:26:59.940Z,1025.44
2018-12-31T08:27:59.928Z,1025.40
2018-12-31T08:28:59.916Z,1025.44
2018-12-31T08:29:59.909Z,1025.47
2018-12-31T08:30:59.929Z,1025.44
2018-12-31T08:31:59.896Z,1025.44
2018-12-31T08:32:59.876Z,1025.46
2018-12-31T08:33:59.861Z,1025.47
2018-12-31T08:34:59.848Z,1025.43
2018-12-31T08:35:59.837Z,1025.40
2018-12-31T08:36:59.848Z,1025.46
2018-12-31T08:37:59.845Z,1025.40
2018-12-31T08:38:59.813Z,1025.42
2018-12-31T08:40:08.829Z,1025.46
2018-12-31T08:40:59.785Z,1025.48
2018-12-31T08:41:59.814Z,1025.46
2018-12-31T08:42:59.772Z,1025.44
2018-12-31T08:43:59.754Z,1025.44
2018-12-31T08:44:59.740Z,1025.47
2018-12-31T08:45:59.730Z,1025.44
2018-12-31T08:46:59.720Z,1025.45
2018-12-31T08:47:59.736Z,1025.43
2018-12-31T08:49:07.805Z,1025.43
2018-12-31T08:50:01.901Z,1025.45
2018-12-31T08:50:59.680Z,1025.42
2018-12-31T08:51:59.666Z,1025.43
2018-12-31T08:52:59.657Z,1025.40
2018-12-31T08:53:59.652Z,1025.46
2018-12-31T08:54:59.661Z,1025.43
2018-12-31T08:55:59.622Z,1025.42
2018-12-31T08:56:59.615Z,1025.45
2018-12-31T08:57:59.606Z,1025.47
2018-12-31T08:58:59.599Z,1025.44
2018-12-31T08:59:59.610Z,1025.41
2018-12-31T09:00:59.575Z,1025.46
2018-12-31T09:02:01.481Z,1025.46
2018-12-31T09:02:59.549Z,1025.43
2018-12-31T09:03:59.560Z,1025.45
2018-12-31T09:04:59.547Z,1025.39
2018-12-31T09:05:59.531Z,1025.41
2018-12-31T09:06:59.509Z,1025.30
2018-12-31T09:07:59.504Z,1025.28
2018-12-31T09:08:59.492Z,1025.26
2018-12-31T09:09:59.899Z,1025.28
2018-12-31T09:10:59.461Z,1025.26
2018-12-31T09:11:59.461Z,1025.25
2018-12-31T09:12:59.444Z,1025.25
2018-12-31T09:13:59.432Z,1025.28
2018-12-31T09:14:59.416Z,1025.25
2018-12-31T09:15:59.427Z,1025.28
2018-12-31T09:16:59.399Z,1025.32
2018-12-31T09:17:59.402Z,1025.38
2018-12-31T09:18:59.380Z,1025.42
2018-12-31T09:19:59.372Z,1025.45
2018-12-31T09:20:59.420Z,1025.37
2018-12-31T09:21:59.341Z,1025.36
2018-12-31T09:22:59.336Z,1025.35
2018-12-31T09:23:59.323Z,1025.34
2018-12-31T09:24:59.309Z,1025.29
2018-12-31T09:25:59.314Z,1025.29
2018-12-31T09:26:59.317Z,1025.26
2018-12-31T09:27:59.275Z,1025.22
2018-12-31T09:28:59.267Z,1025.27
2018-12-31T09:29:59.286Z,1025.25
2018-12-31T09:30:59.273Z,1025.26
2018-12-31T09:31:59.268Z,1025.25
2018-12-31T09:32:59.252Z,1025.21
2018-12-31T09:33:59.235Z,1025.22
2018-12-31T09:34:59.230Z,1025.27
2018-12-31T09:35:59.192Z,1025.28
2018-12-31T09:36:59.185Z,1025.30
2018-12-31T09:37:59.199Z,1025.29
2018-12-31T09:38:59.164Z,1025.34
2018-12-31T09:39:59.179Z,1025.35
2018-12-31T09:40:59.143Z,1025.35
2018-12-31T09:41:59.132Z,1025.35
2018-12-31T09:42:59.131Z,1025.32
2018-12-31T09:43:59.137Z,1025.38
2018-12-31T09:44:59.126Z,1025.35
2018-12-31T09:45:59.084Z,1025.36
2018-12-31T09:46:59.089Z,1025.35
2018-12-31T09:47:59.076Z,1025.37
2018-12-31T09:48:59.120Z,1025.39
2018-12-31T09:49:59.083Z,1025.41
2018-12-31T09:50:59.038Z,1025.42
2018-12-31T09:51:59.023Z,1025.34
2018-12-31T09:52:59.015Z,1025.34
2018-12-31T09:53:58.999Z,1025.33
2018-12-31T09:54:59.027Z,1025.39
2018-12-31T09:55:58.998Z,1025.32
2018-12-31T09:56:58.969Z,1025.31
2018-12-31T09:57:58.966Z,1025.30
2018-12-31T09:58:58.959Z,1025.31
2018-12-31T09:59:58.942Z,1025.27
2018-12-31T10:00:58.950Z,1025.26
2018-12-31T10:01:58.925Z,1025.22
2018-12-31T10:02:58.909Z,1025.24
2018-12-31T10:03:58.900Z,1025.24
2018-12-31T10:04:58.910Z,1025.24
2018-12-31T10:05:58.906Z,1025.22
2018-12-31T10:06:58.863Z,1025.27
2018-12-31T10:07:58.885Z,1025.26
2018-12-31T10:08:58.851Z,1025.26
2018-12-31T10:09:58.853Z,1025.22
2018-12-31T10:10:58.828Z,1025.25
2018-12-31T10:11:58.811Z,1025.24
2018-12-31T10:12:58.807Z,1025.24
2018-12-31T10:13:58.787Z,1025.20
2018-12-31T10:14:58.791Z,1025.22
2018-12-31T10:15:58.767Z,1025.22
2018-12-31T10:16:58.754Z,1025.22
2018-12-31T10:17:58.737Z,1025.26
2018-12-31T10:18:58.731Z,1025.23
2018-12-31T10:19:58.740Z,1025.27
2018-12-31T10:20:58.716Z,1025.32
2018-12-31T10:21:58.747Z,1025.32
2018-12-31T10:22:58.835Z,1025.33
2018-12-31T10:23:58.684Z,1025.35
2018-12-31T10:24:58.701Z,1025.34
2018-12-31T10:25:58.649Z,1025.30
2018-12-31T10:26:58.639Z,1025.25
2018-12-31T10:27:58.639Z,1025.24
2018-12-31T10:28:58.615Z,1025.24
2018-12-31T10:29:58.613Z,1025.23
2018-12-31T10:30:58.666Z,1025.22
2018-12-31T10:31:58.622Z,1025.24
2018-12-31T10:32:58.628Z,1025.21
2018-12-31T10:33:58.585Z,1025.24
2018-12-31T10:34:58.558Z,1025.19
2018-12-31T10:35:58.569Z,1025.19
2018-12-31T10:36:58.539Z,1025.24
2018-12-31T10:37:58.521Z,1025.21
2018-12-31T10:38:58.511Z,1025.19
2018-12-31T10:39:58.500Z,1025.23
2018-12-31T10:40:58.518Z,1025.22
2018-12-31T10:41:58.482Z,1025.16
2018-12-31T10:42:58.473Z,1025.21
2018-12-31T10:43:58.461Z,1025.18
2018-12-31T10:44:58.486Z,1025.17
2018-12-31T10:45:58.429Z,1025.20
2018-12-31T10:46:58.923Z,1025.21
2018-12-31T10:47:58.417Z,1025.19
2018-12-31T10:48:58.404Z,1025.20
2018-12-31T10:49:58.387Z,1025.23
2018-12-31T10:50:58.376Z,1025.21
2018-12-31T10:51:58.389Z,1025.17
2018-12-31T10:52:58.357Z,1025.16
2018-12-31T10:53:58.350Z,1025.15
2018-12-31T10:54:58.338Z,1025.14
2018-12-31T10:55:58.327Z,1025.16
2018-12-31T10:56:58.334Z,1025.15
2018-12-31T10:57:58.317Z,1025.14
2018-12-31T10:58:58.287Z,1025.14
2018-12-31T10:59:58.300Z,1025.08
2018-12-31T11:00:58.266Z,1025.08
2018-12-31T11:01:58.284Z,1025.07
2018-12-31T11:02:58.247Z,1025.03
2018-12-31T11:03:58.257Z,1024.97
2018-12-31T11:04:58.220Z,1024.94
2018-12-31T11:05:58.216Z,1024.96
2018-12-31T11:06:58.205Z,1024.93
2018-12-31T11:07:58.215Z,1024.93
2018-12-31T11:08:58.182Z,1024.97
2018-12-31T11:09:58.196Z,1025.03
2018-12-31T11:10:58.157Z,1025.02
2018-12-31T11:11:58.145Z,1024.98
2018-12-31T11:12:58.133Z,1025.07
2018-12-31T11:13:58.135Z,1025.05
2018-12-31T11:14:58.119Z,1025.06
2018-12-31T11:15:58.143Z,1024.98
2018-12-31T11:16:58.098Z,1024.99
2018-12-31T11:17:58.079Z,1024.97
2018-12-31T11:18:58.072Z,1025.01
2018-12-31T11:19:58.064Z,1025.01
2018-12-31T11:20:58.051Z,1025.00
2018-12-31T11:21:58.058Z,1024.96
2018-12-31T11:22:58.044Z,1024.95
2018-12-31T11:23:58.017Z,1024.92
2018-12-31T11:24:57.999Z,1024.90
2018-12-31T11:25:58.000Z,1024.89
2018-12-31T11:26:57.994Z,1024.86
2018-12-31T11:27:58.006Z,1024.87
2018-12-31T11:28:57.964Z,1024.86
2018-12-31T11:29:57.945Z,1024.79
2018-12-31T11:30:57.937Z,1024.86
2018-12-31T11:31:57.924Z,1024.77
2018-12-31T11:32:57.913Z,1024.75
2018-12-31T11:33:57.938Z,1024.79
2018-12-31T11:34:57.901Z,1024.78
2018-12-31T11:35:57.880Z,1024.81
2018-12-31T11:36:57.868Z,1024.76
2018-12-31T11:37:57.897Z,1024.80
2018-12-31T11:38:57.853Z,1024.83
2018-12-31T11:39:57.840Z,1024.83
2018-12-31T11:40:57.829Z,1024.84
2018-12-31T11:41:58.139Z,1024.87
2018-12-31T11:42:57.806Z,1024.87
2018-12-31T11:43:57.815Z,1024.83
2018-12-31T11:44:57.779Z,1024.86
2018-12-31T11:45:57.774Z,1024.91
2018-12-31T11:46:57.764Z,1024.85
2018-12-31T11:47:57.756Z,1024.85
2018-12-31T11:48:57.765Z,1024.84
2018-12-31T11:49:57.722Z,1024.87
2018-12-31T11:50:57.713Z,1024.84
2018-12-31T11:51:57.732Z,1024.76
2018-12-31T11:52:57.704Z,1024.82
2018-12-31T11:53:57.992Z,1024.78
2018-12-31T11:54:57.671Z,1024.78
2018-12-31T11:55:57.662Z,1024.76
2018-12-31T11:56:57.649Z,1024.75
2018-12-31T11:57:57.692Z,1024.76
2018-12-31T11:58:57.650Z,1024.72
2018-12-31T11:59:57.623Z,1024.73
2018-12-31T12:00:57.610Z,1024.77
2018-12-31T12:01:57.591Z,1024.74
2018-12-31T12:02:57.581Z,1024.71
2018-12-31T12:03:57.600Z,1024.72
2018-12-31T12:04:57.565Z,1024.74